Time;durP1;ratioP1;P1;durP2;ratioP2;P2;SDS_P1;SDS_P2;PMS_P1;PMS_P2;Temp;Humidity;BMP_temperature;BMP_pressure;BME280_temperature;BME280_humidity;BME280_pressure;Samples;Min_cycle;Max_cycle;Signal;HPM_P1;HPM_P2
2022/09/03 00:00:55;;;;;;;0.50;0.10;;;16.50;86.20;;;;;;10446696;28;20045;-62
2022/09/03 00:06:21;;;;;;;0.43;0.20;;;16.50;86.50;;;;;;10449356;28;20057;-61
2022/09/03 00:11:31;;;;;;;4.97;0.30;;;16.50;86.60;;;;;;10446944;28;20098;-61
2022/09/03 00:17:04;;;;;;;2.17;0.20;;;16.40;87.00;;;;;;10451712;28;20131;-61
2022/09/03 00:22:16;;;;;;;0.60;0.20;;;16.40;87.30;;;;;;10443435;28;20087;-61
2022/09/03 00:27:22;;;;;;;1.80;0.20;;;16.30;87.20;;;;;;10450054;28;20094;-60
2022/09/03 00:32:54;;;;;;;0.90;0.27;;;16.30;87.60;;;;;;10441867;28;20052;-61
2022/09/03 00:37:56;;;;;;;0.20;0.20;;;16.20;88.10;;;;;;10444040;28;20376;-61
2022/09/03 00:43:17;;;;;;;0.25;0.20;;;16.10;88.30;;;;;;10452644;28;20087;-61
2022/09/03 00:48:30;;;;;;;1.23;0.20;;;16.00;88.80;;;;;;10446849;28;20063;-61
2022/09/03 00:53:43;;;;;;;1.15;0.30;;;15.90;89.20;;;;;;10445359;28;20139;-62
2022/09/03 00:59:02;;;;;;;0.63;0.20;;;15.80;89.90;;;;;;10449826;28;20056;-61
2022/09/03 01:04:22;;;;;;;1.48;0.20;;;15.70;90.10;;;;;;10453742;28;20586;-61
2022/09/03 01:09:46;;;;;;;3.22;0.90;;;15.60;90.20;;;;;;10442645;28;20041;-61
2022/09/03 01:15:07;;;;;;;0.43;0.17;;;15.60;90.50;;;;;;10448237;28;20049;-61
2022/09/03 01:20:29;;;;;;;2.00;0.20;;;15.50;90.70;;;;;;10443417;28;20605;-65
2022/09/03 01:25:56;;;;;;;1.10;0.20;;;15.40;91.00;;;;;;10446225;28;20056;-65
2022/09/03 01:31:27;;;;;;;1.23;0.20;;;15.30;91.00;;;;;;10452936;28;20481;-65
2022/09/03 01:36:37;;;;;;;1.00;0.20;;;15.30;91.20;;;;;;10449314;28;20048;-65
2022/09/03 01:42:14;;;;;;;0.70;0.63;;;15.20;91.20;;;;;;10441781;28;20056;-65
2022/09/03 01:47:40;;;;;;;0.40;0.20;;;15.20;91.60;;;;;;10442333;28;20059;-65
2022/09/03 01:53:02;;;;;;;0.28;0.20;;;15.20;91.60;;;;;;10443484;28;20390;-66
2022/09/03 01:58:24;;;;;;;1.48;0.20;;;15.10;91.70;;;;;;10442263;28;20040;-65
2022/09/03 02:03:38;;;;;;;1.40;0.20;;;15.00;92.00;;;;;;10441588;28;20045;-66
2022/09/03 02:08:41;;;;;;;0.57;0.25;;;14.90;92.10;;;;;;10444449;28;20053;-61
2022/09/03 02:13:48;;;;;;;0.28;0.20;;;14.90;92.20;;;;;;10446056;28;20047;-61
2022/09/03 02:18:54;;;;;;;0.28;0.20;;;14.90;92.40;;;;;;10443088;28;20057;-65
2022/09/03 02:23:56;;;;;;;0.93;0.20;;;14.90;92.50;;;;;;10442404;28;20067;-66
2022/09/03 02:29:01;;;;;;;0.20;0.20;;;14.90;92.60;;;;;;10433955;28;20110;-61
2022/09/03 02:34:03;;;;;;;3.15;0.30;;;15.00;92.70;;;;;;10449464;28;20572;-61
2022/09/03 02:39:05;;;;;;;3.13;0.20;;;15.00;92.80;;;;;;10442295;28;20060;-62
2022/09/03 02:44:22;;;;;;;0.43;0.30;;;15.00;92.80;;;;;;10444967;28;20060;-61
2022/09/03 02:49:26;;;;;;;2.25;0.20;;;15.00;92.80;;;;;;10428997;28;20041;-60
2022/09/03 02:54:27;;;;;;;1.00;0.25;;;15.10;92.90;;;;;;10445194;28;20553;-61
2022/09/03 02:59:29;;;;;;;0.52;0.28;;;15.10;93.00;;;;;;10444255;28;20529;-66
2022/09/03 03:04:32;;;;;;;0.20;0.20;;;15.10;93.10;;;;;;10436280;28;20499;-65
2022/09/03 03:09:33;;;;;;;0.65;0.20;;;15.10;93.10;;;;;;10434309;28;20057;-63
2022/09/03 03:14:35;;;;;;;0.60;0.20;;;15.20;93.10;;;;;;10440830;28;20461;-63
2022/09/03 03:19:36;;;;;;;1.65;0.20;;;15.20;93.20;;;;;;10441985;28;20118;-63
2022/09/03 03:24:38;;;;;;;0.55;0.20;;;15.30;93.20;;;;;;10440686;28;20053;-63
2022/09/03 03:29:40;;;;;;;0.30;0.17;;;15.30;93.20;;;;;;10434285;28;20075;-63
2022/09/03 03:34:41;;;;;;;0.20;0.10;;;15.40;93.50;;;;;;10439665;28;20067;-62
2022/09/03 03:39:43;;;;;;;2.03;0.20;;;15.40;93.40;;;;;;10439495;28;20052;-62
2022/09/03 03:44:45;;;;;;;0.80;0.25;;;15.60;93.50;;;;;;10442102;28;20121;-63
2022/09/03 03:49:47;;;;;;;1.65;0.30;;;15.60;93.20;;;;;;10441127;28;20048;-62
2022/09/03 03:54:49;;;;;;;0.35;0.20;;;15.70;93.30;;;;;;10442460;28;20045;-61
2022/09/03 03:59:51;;;;;;;3.35;0.30;;;15.80;93.00;;;;;;10438342;28;20060;-61
2022/09/03 04:04:53;;;;;;;2.33;0.32;;;15.90;92.90;;;;;;10439835;28;20126;-61
2022/09/03 04:09:55;;;;;;;1.33;0.25;;;15.90;92.80;;;;;;10442612;28;20071;-59
2022/09/03 04:14:57;;;;;;;2.67;0.30;;;16.00;92.70;;;;;;10426992;28;20494;-59
2022/09/03 04:19:58;;;;;;;0.20;0.20;;;16.10;93.00;;;;;;10448645;28;20056;-59
2022/09/03 04:25:00;;;;;;;2.63;0.30;;;16.10;92.90;;;;;;10451562;28;20679;-59
2022/09/03 04:30:02;;;;;;;2.58;0.40;;;16.20;93.00;;;;;;10453773;28;20056;-60
2022/09/03 04:35:05;;;;;;;0.85;0.20;;;16.20;92.60;;;;;;10449756;28;20045;-60
2022/09/03 04:40:07;;;;;;;0.63;0.20;;;16.30;92.70;;;;;;10449957;28;20581;-60
2022/09/03 04:45:10;;;;;;;0.60;0.28;;;16.30;92.70;;;;;;10448060;28;20060;-59
2022/09/03 04:50:12;;;;;;;1.02;0.20;;;16.40;92.60;;;;;;10453292;28;20110;-60
2022/09/03 04:55:15;;;;;;;1.60;0.30;;;16.40;92.50;;;;;;10446609;28;20048;-59
2022/09/03 05:00:18;;;;;;;0.47;0.20;;;16.40;92.50;;;;;;10443484;28;20395;-59
2022/09/03 05:05:20;;;;;;;0.90;0.30;;;16.50;92.40;;;;;;10444864;28;20049;-60
2022/09/03 05:10:22;;;;;;;1.88;0.20;;;16.50;92.40;;;;;;10443017;28;20048;-59
2022/09/03 05:15:24;;;;;;;0.60;0.20;;;16.60;92.50;;;;;;10448904;28;20052;-59
2022/09/03 05:20:28;;;;;;;0.73;0.28;;;16.60;92.40;;;;;;10446901;28;20048;-60
2022/09/03 05:25:33;;;;;;;2.38;0.20;;;16.60;92.20;;;;;;10451158;28;20067;-60
2022/09/03 05:30:35;;;;;;;0.30;0.20;;;16.70;92.10;;;;;;10445890;28;20135;-59
2022/09/03 05:35:37;;;;;;;0.17;0.13;;;16.80;92.20;;;;;;10452942;28;20460;-60
2022/09/03 05:40:40;;;;;;;0.60;0.20;;;16.80;92.20;;;;;;10453730;28;20413;-60
2022/09/03 05:45:42;;;;;;;1.10;0.28;;;16.80;92.20;;;;;;10448603;28;20052;-59
2022/09/03 05:50:43;;;;;;;0.30;0.20;;;16.90;92.10;;;;;;10449725;28;20130;-59
2022/09/03 05:55:55;;;;;;;1.17;0.20;;;17.00;92.20;;;;;;10457019;28;20102;-63
2022/09/03 06:00:56;;;;;;;0.17;0.10;;;17.10;92.00;;;;;;10471834;28;20053;-64
2022/09/03 06:05:58;;;;;;;1.00;0.20;;;17.20;91.90;;;;;;10475494;28;20041;-63
2022/09/03 06:11:03;;;;;;;0.50;0.17;;;17.30;91.90;;;;;;10470646;28;20087;-63
2022/09/03 06:16:06;;;;;;;0.47;0.20;;;17.30;91.90;;;;;;10467353;28;20074;-63
2022/09/03 06:21:08;;;;;;;0.82;0.20;;;17.40;91.80;;;;;;10478956;28;20078;-64
2022/09/03 06:26:12;;;;;;;1.75;0.20;;;17.60;91.90;;;;;;10480310;28;20541;-64
2022/09/03 06:31:16;;;;;;;1.92;0.25;;;17.70;91.80;;;;;;10490137;28;20045;-64
2022/09/03 06:36:19;;;;;;;1.98;0.28;;;17.70;91.60;;;;;;10485975;28;20127;-64
2022/09/03 06:41:27;;;;;;;0.20;0.20;;;17.80;91.70;;;;;;10426521;28;20055;-62
2022/09/03 06:46:37;;;;;;;3.70;0.30;;;17.80;91.40;;;;;;10447092;28;20049;-62
2022/09/03 06:51:39;;;;;;;1.63;0.20;;;17.80;91.70;;;;;;10443256;28;20131;-62
2022/09/03 06:56:50;;;;;;;1.65;0.22;;;17.90;91.60;;;;;;10444870;27;20804;-63
2022/09/03 07:01:52;;;;;;;0.82;0.20;;;18.00;91.90;;;;;;10418816;28;20925;-63
2022/09/03 07:06:53;;;;;;;0.50;0.35;;;18.10;91.60;;;;;;10422087;28;20047;-63
2022/09/03 07:11:55;;;;;;;3.08;0.30;;;18.00;94.50;;;;;;10410238;28;20680;-60
2022/09/03 07:16:57;;;;;;;0.55;0.30;;;18.00;96.40;;;;;;10413495;28;20104;-60
2022/09/03 07:22:13;;;;;;;1.85;0.40;;;17.90;96.40;;;;;;10305415;22;20049;-89
2022/09/03 07:27:21;;;;;;;1.65;0.30;;;17.90;97.50;;;;;;10276654;28;20046;-88
2022/09/03 07:32:27;;;;;;;1.80;0.30;;;18.00;97.50;;;;;;10309087;28;20142;-90
2022/09/03 07:37:42;;;;;;;1.42;0.30;;;17.90;97.30;;;;;;10323679;28;20393;-89
2022/09/03 07:42:47;;;;;;;0.43;0.30;;;17.90;97.40;;;;;;10280866;28;20058;-89
2022/09/03 07:47:56;;;;;;;2.63;0.30;;;17.90;97.60;;;;;;10197063;28;20051;-89
2022/09/03 07:52:58;;;;;;;1.23;0.35;;;18.00;96.60;;;;;;10332055;28;20100;-88
2022/09/03 07:58:00;;;;;;;0.60;0.30;;;18.00;96.40;;;;;;10327177;28;20074;-88
2022/09/03 08:03:07;;;;;;;10.18;0.52;;;18.00;95.80;;;;;;10326915;28;20133;-88
2022/09/03 08:08:09;;;;;;;0.40;0.30;;;18.00;98.00;;;;;;10276045;28;20129;-88
2022/09/03 08:13:16;;;;;;;1.95;0.43;;;17.90;99.90;;;;;;10256699;28;20106;-88
2022/09/03 08:18:19;;;;;;;0.65;0.32;;;17.70;99.90;;;;;;10303661;28;20050;-88
2022/09/03 08:23:22;;;;;;;1.52;0.45;;;17.70;99.90;;;;;;10293282;28;20408;-88
2022/09/03 08:28:24;;;;;;;2.75;0.35;;;17.70;99.90;;;;;;10307661;28;20092;-88
2022/09/03 08:33:46;;;;;;;1.58;0.30;;;17.90;99.90;;;;;;10305063;28;20081;-88
2022/09/03 08:38:54;;;;;;;0.50;0.40;;;17.90;99.90;;;;;;10300191;28;20053;-87
2022/09/03 08:44:08;;;;;;;0.60;0.50;;;17.90;99.90;;;;;;10299182;28;20061;-90
2022/09/03 08:49:17;;;;;;;1.88;0.43;;;18.00;99.90;;;;;;10266420;28;20054;-88
2022/09/03 08:54:22;;;;;;;0.60;0.50;;;17.90;99.90;;;;;;10313622;28;20137;-85
2022/09/03 08:59:24;;;;;;;4.10;0.63;;;18.10;99.90;;;;;;10319103;28;20054;-85
2022/09/03 09:05:04;;;;;;;3.38;0.70;;;18.20;99.90;;;;;;10317045;28;20566;-86
2022/09/03 09:10:34;;;;;;;1.13;0.50;;;18.40;99.90;;;;;;10310659;28;20148;-85
2022/09/03 09:16:02;;;;;;;0.73;0.50;;;18.50;99.90;;;;;;10299832;28;20168;-85
2022/09/03 09:21:23;;;;;;;0.90;0.40;;;18.70;99.90;;;;;;10313081;28;20052;-85
2022/09/03 09:26:29;;;;;;;4.70;0.50;;;18.90;99.90;;;;;;10337786;28;20136;-77
2022/09/03 09:31:30;;;;;;;4.25;0.75;;;18.80;99.90;;;;;;10352754;28;20098;-77
2022/09/03 09:36:42;;;;;;;0.68;0.50;;;18.90;99.90;;;;;;10355818;28;20042;-76
2022/09/03 09:41:57;;;;;;;2.78;0.60;;;19.20;99.90;;;;;;10353453;28;20048;-78
2022/09/03 09:47:37;;;;;;;7.82;0.60;;;19.30;99.90;;;;;;10341826;28;20488;-77
2022/09/03 09:52:38;;;;;;;0.88;0.47;;;19.20;99.90;;;;;;10309917;28;20072;-77
2022/09/03 09:57:40;;;;;;;4.80;0.70;;;19.40;99.90;;;;;;10359896;28;21506;-80
2022/09/03 10:02:49;;;;;;;1.02;0.50;;;19.30;99.90;;;;;;10338955;28;20048;-77
2022/09/03 10:07:55;;;;;;;2.97;0.63;;;19.50;99.90;;;;;;10324950;28;20069;-77
2022/09/03 10:13:08;;;;;;;0.90;0.60;;;19.40;99.90;;;;;;10354210;28;20065;-77
2022/09/03 10:18:43;;;;;;;3.75;0.73;;;19.70;99.90;;;;;;10352746;28;20056;-82
2022/09/03 10:23:58;;;;;;;2.22;0.60;;;19.50;99.90;;;;;;10351400;28;20102;-83
2022/09/03 10:29:07;;;;;;;4.15;0.60;;;19.80;99.90;;;;;;10350131;28;20086;-82
2022/09/03 10:34:33;;;;;;;1.75;0.68;;;20.20;99.90;;;;;;10357123;28;20506;-89
2022/09/03 10:40:03;;;;;;;0.90;0.70;;;20.10;99.90;;;;;;10324856;28;20488;-88
2022/09/03 10:45:27;;;;;;;5.88;0.63;;;20.40;99.10;;;;;;10265556;28;20061;-88
2022/09/03 10:50:39;;;;;;;1.88;0.90;;;20.20;99.90;;;;;;10293155;28;20470;-89
2022/09/03 10:56:00;;;;;;;2.17;1.00;;;19.90;99.10;;;;;;10331801;28;20056;-88
2022/09/03 11:01:28;;;;;;;2.88;0.70;;;20.00;99.70;;;;;;10325847;28;20149;-88
2022/09/03 11:06:41;;;;;;;1.00;0.65;;;20.50;99.70;;;;;;10325032;28;20045;-88
2022/09/03 11:11:57;;;;;;;0.65;0.50;;;20.20;99.50;;;;;;10320917;28;20057;-88
2022/09/03 11:17:07;;;;;;;1.92;0.70;;;20.20;98.80;;;;;;10344032;28;20046;-88
2022/09/03 11:22:11;;;;;;;1.02;0.70;;;20.60;99.10;;;;;;10316648;28;20621;-89
2022/09/03 11:27:57;;;;;;;1.75;0.80;;;20.50;99.50;;;;;;10319625;28;20045;-88
2022/09/03 11:33:06;;;;;;;4.88;1.63;;;20.80;99.30;;;;;;10262855;28;20057;-89
2022/09/03 11:38:14;;;;;;;2.35;0.73;;;20.70;99.50;;;;;;10349148;28;20051;-88
2022/09/03 11:43:32;;;;;;;2.30;0.90;;;21.10;99.30;;;;;;10345271;28;20033;-88
2022/09/03 11:48:43;;;;;;;1.50;0.77;;;21.20;99.30;;;;;;10352201;28;20049;-88
2022/09/03 11:54:05;;;;;;;1.30;0.90;;;20.60;99.60;;;;;;10348625;28;20137;-89
2022/09/03 11:59:12;;;;;;;1.73;0.90;;;20.70;99.90;;;;;;10309088;28;20114;-88
2022/09/03 12:04:16;;;;;;;1.63;0.82;;;21.20;99.50;;;;;;10314137;28;20046;-88
2022/09/03 12:09:55;;;;;;;1.77;0.63;;;21.40;99.10;;;;;;10342988;28;20080;-88
2022/09/03 12:15:08;;;;;;;4.15;0.80;;;21.70;99.20;;;;;;10346415;28;20068;-88
2022/09/03 12:20:14;;;;;;;1.65;0.82;;;21.90;99.30;;;;;;10341622;28;20137;-88
2022/09/03 12:25:16;;;;;;;2.45;0.70;;;22.10;98.10;;;;;;10356204;28;20126;-89
2022/09/03 12:30:23;;;;;;;2.17;0.80;;;22.60;97.90;;;;;;10348833;28;20052;-88
2022/09/03 12:35:25;;;;;;;2.35;0.60;;;22.80;97.10;;;;;;10333652;28;20124;-89
2022/09/03 12:40:47;;;;;;;1.45;0.80;;;23.20;96.80;;;;;;10336446;28;20065;-89
2022/09/03 12:46:15;;;;;;;3.20;0.50;;;23.80;95.60;;;;;;10265540;28;20042;-89
2022/09/03 12:51:20;;;;;;;1.65;0.60;;;24.10;95.70;;;;;;10254166;28;20048;-88
2022/09/03 12:56:46;;;;;;;1.35;0.70;;;24.60;94.80;;;;;;10325307;28;20062;-89
2022/09/03 13:01:54;;;;;;;0.73;0.43;;;24.00;94.20;;;;;;10318756;28;20049;-88
2022/09/03 13:07:07;;;;;;;1.88;0.45;;;24.80;93.40;;;;;;10324085;28;20054;-89
2022/09/03 13:12:49;;;;;;;2.40;0.50;;;25.00;92.80;;;;;;10331278;28;20095;-88
2022/09/03 13:18:25;;;;;;;0.43;0.38;;;25.00;92.30;;;;;;10333857;28;20065;-89
2022/09/03 13:23:30;;;;;;;5.45;0.40;;;25.40;92.10;;;;;;10343247;28;20468;-88
2022/09/03 13:28:56;;;;;;;0.90;0.40;;;25.30;91.80;;;;;;10324129;28;20042;-89
2022/09/03 13:34:01;;;;;;;;;;;25.60;91.70;;;;;;10308966;28;20061;-88
2022/09/03 13:39:40;;;;;;;1.33;0.40;;;25.50;91.60;;;;;;10338398;28;20008;-89
2022/09/03 13:45:00;;;;;;;0.55;0.40;;;25.80;91.40;;;;;;10315766;28;20053;-88
2022/09/03 13:50:21;;;;;;;1.23;0.40;;;25.60;91.50;;;;;;10346441;28;20046;-88
2022/09/03 13:55:26;;;;;;;0.60;0.40;;;25.60;91.10;;;;;;10326907;28;20069;-88
2022/09/03 14:01:09;;;;;;;1.73;0.40;;;26.00;91.20;;;;;;10326414;28;20054;-88
2022/09/03 14:06:45;;;;;;;1.60;0.50;;;25.60;91.10;;;;;;10346579;28;20064;-88
2022/09/03 14:12:01;;;;;;;;;;;25.10;91.40;;;;;;10345673;28;20582;-88
2022/09/03 14:17:22;;;;;;;0.70;0.40;;;25.10;91.80;;;;;;10343071;28;19921;-88
2022/09/03 14:22:44;;;;;;;1.83;0.40;;;25.10;91.60;;;;;;10318077;28;20049;-88
2022/09/03 14:27:47;;;;;;;0.80;0.40;;;25.10;92.10;;;;;;10353780;28;20137;-88
2022/09/03 14:33:07;;;;;;;0.90;0.40;;;26.20;91.20;;;;;;10341143;28;20053;-89
2022/09/03 14:38:18;;;;;;;0.80;0.50;;;27.00;89.80;;;;;;10348699;28;20078;-88
2022/09/03 14:44:10;;;;;;;0.55;0.43;;;26.80;89.00;;;;;;10356175;28;20053;-88
2022/09/03 14:49:45;;;;;;;1.45;0.30;;;25.80;89.80;;;;;;10342968;28;20137;-88
2022/09/03 14:55:05;;;;;;;0.65;0.45;;;25.20;90.50;;;;;;10321830;28;20408;-88
2022/09/03 15:00:30;;;;;;;0.38;0.30;;;25.10;90.80;;;;;;10347597;28;20492;-88
2022/09/03 15:06:01;;;;;;;0.90;0.47;;;24.90;91.30;;;;;;10338419;28;20088;-88
2022/09/03 15:11:21;;;;;;;1.50;0.60;;;24.20;92.20;;;;;;10340921;28;20133;-88
2022/09/03 15:16:39;;;;;;;0.88;0.50;;;24.20;92.20;;;;;;10315426;28;20030;-88
2022/09/03 15:21:57;;;;;;;0.90;0.43;;;24.20;93.10;;;;;;10355708;28;20033;-88
2022/09/03 15:27:18;;;;;;;0.80;0.43;;;24.40;92.50;;;;;;10355755;28;20057;-88
2022/09/03 15:32:32;;;;;;;0.77;0.40;;;24.50;92.90;;;;;;10347583;28;20551;-88
2022/09/03 15:37:46;;;;;;;2.15;0.50;;;24.40;92.50;;;;;;10350528;28;20049;-88
2022/09/03 15:42:54;;;;;;;0.38;0.30;;;24.70;92.40;;;;;;10357754;28;20053;-88
2022/09/03 15:48:15;;;;;;;1.10;0.45;;;24.20;92.90;;;;;;10356729;28;20030;-88
2022/09/03 15:53:30;;;;;;;0.88;0.50;;;24.30;92.90;;;;;;10337339;28;20057;-88
2022/09/03 15:58:56;;;;;;;0.88;0.40;;;24.60;93.00;;;;;;10350587;28;20056;-88
2022/09/03 16:04:08;;;;;;;0.60;0.37;;;24.60;93.10;;;;;;10345935;28;20057;-89
2022/09/03 16:09:41;;;;;;;0.43;0.30;;;24.20;93.20;;;;;;10336235;28;20054;-89
2022/09/03 16:15:05;;;;;;;0.60;0.30;;;24.10;93.50;;;;;;10339174;28;20050;-89
2022/09/03 16:20:30;;;;;;;1.30;0.40;;;24.20;93.60;;;;;;10346078;28;20911;-87
2022/09/03 16:25:43;;;;;;;0.50;0.30;;;24.00;94.10;;;;;;10330228;28;20050;-88
2022/09/03 16:30:57;;;;;;;0.60;0.40;;;23.80;94.30;;;;;;10349364;28;20073;-88
2022/09/03 16:36:10;;;;;;;0.50;0.30;;;24.00;94.50;;;;;;10323392;28;20057;-88
2022/09/03 16:41:42;;;;;;;0.73;0.30;;;23.60;94.90;;;;;;10329072;28;20085;-88
2022/09/03 16:47:15;;;;;;;0.60;0.32;;;23.60;95.30;;;;;;10363291;28;20058;-88
2022/09/03 16:52:38;;;;;;;0.63;0.40;;;23.30;95.80;;;;;;10356002;28;20089;-88
2022/09/03 16:58:10;;;;;;;0.52;0.40;;;23.40;96.00;;;;;;10344102;28;20130;-88
2022/09/03 17:03:41;;;;;;;0.85;0.40;;;23.30;96.40;;;;;;10322514;28;20069;-89
2022/09/03 17:09:23;;;;;;;1.50;0.93;;;23.20;96.60;;;;;;10346345;28;20045;-89
2022/09/03 17:14:53;;;;;;;1.40;0.43;;;23.20;96.90;;;;;;10341504;28;20451;-88
2022/09/03 17:20:10;;;;;;;0.80;0.40;;;23.20;97.00;;;;;;10334758;28;20124;-89
2022/09/03 17:25:35;;;;;;;0.50;0.30;;;23.10;97.40;;;;;;10348941;28;20186;-88
2022/09/03 17:30:46;;;;;;;1.70;0.60;;;23.00;97.60;;;;;;10346744;28;20067;-88
2022/09/03 17:36:01;;;;;;;1.55;0.70;;;22.90;97.90;;;;;;10326995;28;20084;-89
2022/09/03 17:41:12;;;;;;;0.52;0.30;;;22.80;98.10;;;;;;10327471;28;20133;-88
2022/09/03 17:46:45;;;;;;;0.30;0.20;;;22.50;98.90;;;;;;10367035;28;20080;-88
2022/09/03 17:52:10;;;;;;;0.50;0.10;;;22.30;99.40;;;;;;10351978;28;20057;-89
2022/09/03 17:57:29;;;;;;;2.75;0.20;;;21.90;99.70;;;;;;10343502;28;20060;-88
2022/09/03 18:02:34;;;;;;;0.22;0.10;;;21.70;99.90;;;;;;10363723;28;20061;-88
2022/09/03 18:07:58;;;;;;;2.83;0.30;;;21.50;99.90;;;;;;10326361;28;20050;-88
2022/09/03 18:13:41;;;;;;;0.32;0.10;;;21.40;99.90;;;;;;10347422;28;20042;-88
2022/09/03 18:18:46;;;;;;;0.40;0.20;;;21.40;99.90;;;;;;10337068;28;20063;-88
2022/09/03 20:15:57;;;;;;;0.50;0.10;;;19.50;99.90;;;;;;10341889;28;20049;-89
2022/09/03 20:21:11;;;;;;;0.35;0.10;;;19.50;99.90;;;;;;10349470;28;20066;-89
2022/09/03 20:26:25;;;;;;;0.65;0.10;;;19.40;99.90;;;;;;10308412;28;20061;-88
2022/09/03 20:31:40;;;;;;;0.85;0.10;;;19.30;99.90;;;;;;10334452;28;20081;-88
2022/09/03 20:36:50;;;;;;;0.10;0.08;;;19.20;99.90;;;;;;10336265;28;20060;-88
2022/09/03 20:42:22;;;;;;;0.40;0.10;;;19.20;99.90;;;;;;10348395;28;20099;-88
2022/09/03 20:47:58;;;;;;;0.50;0.10;;;19.10;99.90;;;;;;10320529;28;20054;-88
2022/09/03 20:53:23;;;;;;;0.20;0.10;;;19.00;99.90;;;;;;10328339;28;20046;-89
2022/09/03 20:58:40;;;;;;;1.27;0.10;;;19.00;99.90;;;;;;10317932;28;20045;-88
2022/09/03 21:04:03;;;;;;;2.42;0.52;;;18.90;99.90;;;;;;10309593;28;20050;-88
2022/09/03 21:09:15;;;;;;;0.52;0.20;;;18.90;99.90;;;;;;10341095;28;20131;-88
2022/09/03 21:14:46;;;;;;;0.77;0.20;;;18.80;99.90;;;;;;10358949;28;20129;-88
2022/09/03 21:20:06;;;;;;;0.40;0.20;;;18.80;99.90;;;;;;10325320;28;20038;-88
2022/09/03 21:25:16;;;;;;;1.35;0.15;;;18.80;99.90;;;;;;10337336;28;20480;-89
2022/09/03 21:30:19;;;;;;;0.30;0.10;;;18.80;99.90;;;;;;10336686;28;20054;-88
2022/09/03 21:35:48;;;;;;;0.47;0.20;;;18.80;99.90;;;;;;10343573;28;20076;-88
2022/09/03 21:41:16;;;;;;;1.85;0.20;;;18.70;99.90;;;;;;10359261;28;20045;-83
2022/09/03 21:46:26;;;;;;;0.40;0.20;;;18.60;99.90;;;;;;10340932;28;20415;-83
2022/09/03 21:51:46;;;;;;;0.52;0.20;;;18.50;99.90;;;;;;10335537;28;20046;-83
2022/09/03 21:57:03;;;;;;;1.27;0.20;;;18.20;99.90;;;;;;10340966;28;20054;-83
2022/09/03 22:02:25;;;;;;;4.50;0.30;;;18.20;99.90;;;;;;10352248;28;20058;-82
2022/09/03 22:07:30;;;;;;;0.50;0.20;;;18.00;99.90;;;;;;10355114;28;20057;-82
2022/09/03 22:12:44;;;;;;;0.85;0.35;;;17.90;99.90;;;;;;10340847;28;20081;-83
2022/09/03 22:17:57;;;;;;;1.20;0.22;;;17.80;99.90;;;;;;10353336;28;20156;-85
2022/09/03 22:23:06;;;;;;;2.30;0.20;;;17.70;99.90;;;;;;10350535;28;20148;-84
2022/09/03 22:28:29;;;;;;;0.98;0.30;;;17.60;99.90;;;;;;10340580;28;20290;-82
2022/09/03 22:33:34;;;;;;;1.30;0.40;;;17.50;99.90;;;;;;10340896;28;20393;-82
2022/09/03 22:39:12;;;;;;;2.50;0.38;;;17.50;99.90;;;;;;10338659;28;20050;-83
2022/09/03 22:44:38;;;;;;;1.00;0.50;;;17.50;99.90;;;;;;10357819;28;20174;-83
2022/09/03 22:49:44;;;;;;;1.30;0.50;;;17.40;99.90;;;;;;10343538;28;20053;-82
2022/09/03 22:54:55;;;;;;;1.65;0.63;;;17.20;99.90;;;;;;10347322;28;20053;-83
2022/09/03 23:00:03;;;;;;;1.42;0.47;;;17.20;99.90;;;;;;10348400;28;20049;-82
2022/09/03 23:05:35;;;;;;;3.67;0.55;;;17.10;99.90;;;;;;10328226;28;20050;-83
2022/09/03 23:11:11;;;;;;;1.20;0.40;;;17.00;99.90;;;;;;10331981;28;20046;-83
2022/09/03 23:16:32;;;;;;;0.90;0.47;;;17.00;99.90;;;;;;10353337;28;20480;-83
2022/09/03 23:22:05;;;;;;;1.50;0.40;;;16.90;99.90;;;;;;10340694;28;20050;-82
2022/09/03 23:27:13;;;;;;;1.00;0.30;;;16.80;99.90;;;;;;10339052;28;20053;-83
2022/09/03 23:32:15;;;;;;;1.02;0.50;;;16.70;99.90;;;;;;10337254;28;20053;-83
2022/09/03 23:37:26;;;;;;;5.28;1.55;;;16.70;99.90;;;;;;10358457;28;20303;-83
2022/09/03 23:42:58;;;;;;;3.10;0.70;;;16.70;99.90;;;;;;10343403;28;20041;-83
2022/09/03 23:48:25;;;;;;;2.05;0.60;;;16.70;99.90;;;;;;10339487;28;20049;-83
2022/09/03 23:53:53;;;;;;;1.50;0.50;;;16.60;99.90;;;;;;10356881;28;21482;-83
2022/09/03 23:59:15;;;;;;;3.45;0.50;;;16.50;99.90;;;;;;10358605;28;20042;-83
